Can Ozil

Ojeador - Konyaspor
4 Dic 2028
Lunes
Continuar

Personalidad

Adaptabilidad (3) Ambición (15) Controversia (20) Lealtad (14) Presión (15) Profesionalismo (5) Deportividad (5) Temperamento (13)

Perfil

Estilo de dirección Democrático
Licencia Nacional A
Determinación 6
Gestión de personas 7
Motivación 6
Disciplina 7
Satisfacción laboral
100%
Fatiga
0%
Cargo Ojeador
Salario 62.7K p/s
Contrato 14.03.2029

Rendimiento

Comportamiento Bueno
Efectividad del entrenamiento
44%
Desarrollo de jugadores
25%
Prevención de lesiones
40%
Implementación táctica
50%

Eventos recientes

Asistió a una reunión de captación ahora
Recomendó un objetivo de fichaje ahora
Evaluó a un jugador ahora
Evaluó a un jugador ahora
Evaluó a un jugador 7d atrás
Evaluó a un jugador 7d atrás
Observó un partido 7d atrás
Evaluó a un jugador 7d atrás

Actualmente siguiendo

67
Jugador Club Estado Habilidad Confianza Observado Última observación Último voto
Daniel Banjaqui Benfica Activo 124 / 141 40% 4 30.11.2028 -
Celías Ingenthron Platense Activo 116 / 132 40% 2 30.11.2028 -
Buba Sangaré Elche Activo 139 / 145 40% 1 30.11.2028 -
Christos Mouzakitis Hull City Activo 144 / 146 40% 8 29.11.2028 -
Malte Hallin GIF Sundsvall Activo 95 / 90 40% 2 29.11.2028 -
Gideon Manaseh Ikorodu City Activo 97 / 88 40% 3 29.11.2028 -
Aytor Herrera Mineros de Guayana Activo 80 / 105 40% 2 28.11.2028 -
Martim Cunha Porto Activo 113 / 114 40% 1 28.11.2028 -
José Neto Benfica Activo 120 / 134 40% 1 26.11.2028 -
Estanislao López Colón Activo 99 / 109 40% 2 24.11.2028 -
Matias Siltanen Malmo FF Activo 132 / 137 40% 2 24.11.2028 -
Veljko Milosavljević Bournemouth Activo 154 / 147 40% 1 24.11.2028 -
Giovanni Leoni Lincoln City Activo 152 / 157 40% 3 22.11.2028 -
Ayyoub Bouaddi Stoke City Activo 145 / 163 40% 3 22.11.2028 -
Luis Otávio Orlando City Activo 120 / 118 40% 4 22.11.2028 -
Jorge Salinas Racing Santander Activo 143 / 145 40% 3 21.11.2028 -
Honest Ahanor Atalanta Activo 145 / 153 40% 4 19.11.2028 -
Peyton Miller New England Revolution Activo 125 / 130 40% 1 19.11.2028 -
Felipe Varela Trujillanos Activo 95 / 86 40% 2 17.11.2028 -
Trey Nyoni Rotherham United Activo 142 / 143 40% 4 15.11.2028 -
Máximo Munarriz San Telmo Activo 100 / 111 40% 1 11.11.2028 -
Matías Magdaleno Estudiantes Activo 105 / 107 40% 1 10.11.2028 -
Rene Hrvatin Istra 1961 Activo 107 / 115 40% 1 10.11.2028 -
Tyler Fletcher Rotherham United Activo 111 / 120 40% 3 09.11.2028 -
Melvin Vučenović Persson Atvidaberg Activo 80 / 102 40% 1 09.11.2028 -
Harrison Armstrong Ipswich Town Activo 139 / 143 40% 1 08.11.2028 -
Davinchi Getafe Activo 120 / 126 40% 1 08.11.2028 -
Johan Solstad-Nøis Tromso Activo 95 / 105 40% 1 07.11.2028 -
Joel Ezra Enyimba Activo 100 / 114 40% 1 06.11.2028 -
Jan Bürger Northampton Town Activo 121 / 126 40% 1 09.08.2028 -
Eduardo Fernandes Benfica Activo 133 / 125 40% 1 09.08.2028 -
Dânio Djassi Portimonense Activo 130 / 118 40% 1 09.08.2028 -
Mert Günok Basaksehir Informe listo 126 / 114 65% 1 07.08.2028 -
Leo Pecover Swindon Town Activo 106 / 115 40% 4 17.07.2028 -
Romelle Donovan Brentford Activo 137 / 139 40% 2 17.07.2028 -
Nikola Storm Antalyaspor Informe listo 121 / 121 65% 1 17.07.2028 -
Edison Gruezo Guadalajara Activo 116 / 124 40% 1 17.07.2028 -
Gabriel Mec Feirense Activo 135 / 126 40% 6 03.07.2028 -
Ryan McAidoo Oldham Athletic Activo 121 / 121 40% 3 03.07.2028 -
Ryan Kavuma-McQueen Accrington Stanley Activo 121 / 130 40% 5 03.07.2028 -
Luca Meirelles Kudrivka Activo 134 / 129 40% 3 29.05.2028 -
Jake Evans Crewe Alexandra Activo 106 / 121 40% 3 29.05.2028 -
Luca Williams-Barnett Walsall Activo 132 / 127 40% 8 28.05.2028 -
Ryunosuke Sato Eibar Activo 141 / 134 40% 5 27.05.2028 -
Fletcher Boyd Accrington Stanley Activo 102 / 106 40% 2 25.05.2028 -
Alphadjo Cissé Lecce Activo 139 / 144 40% 2 25.05.2028 -
Rio Ngumoha Plymouth Argyle Activo 135 / 152 40% 4 23.05.2028 -
Amin Nabizada Exeter City Activo 105 / 126 40% 5 21.05.2028 -
Ibrahim Fullah Charlton Athletic Activo 126 / 128 40% 3 19.05.2028 -
Josh Nichols Oldham Athletic Activo 118 / 124 40% 2 19.05.2028 -
Siyabonga Mabena Bidvest Wits Activo 128 / 111 40% 3 18.05.2028 -
Igor Tyjon Barrow AFC Activo 110 / 128 40% 5 15.05.2028 -
Henrique Carmo Sochi Activo 135 / 137 40% 2 15.05.2028 -
Aarón Ochoa Málaga Activo 125 / 126 40% 2 15.05.2028 -
Oskar Pietuszewski Estrela da Amadora Activo 123 / 129 40% 3 13.05.2028 -
Eli Junior Kroupi Bournemouth Activo 154 / 147 40% 3 13.05.2028 -
Kerim Alajbegović Modena Activo 131 / 140 40% 1 13.05.2028 -
Nana Nuhu WAFA Activo 102 / 97 40% 1 07.05.2028 -
André Miranda Porto Activo 112 / 121 40% 1 06.05.2028 -
Gorka Gorosabel Real Sociedad Activo 118 / 119 40% 2 05.05.2028 -
Ben Broggio Mansfield Town Activo 106 / 110 40% 2 01.05.2028 -
Shea Lacey Crystal Palace Activo 139 / 144 40% 3 01.05.2028 -
Rémi Himbert AC Ajaccio Activo 126 / 126 40% 1 07.04.2028 -
Oscar Schwartau Norwich City Activo 134 / 127 40% 1 07.04.2028 -
Izan Merino Málaga Activo 136 / 137 40% 1 04.04.2028 -
Álex Blanco Umraniyespor Activo 98 / 111 65% 1 01.01.2027 -
Umut Nayir Trabzonspor Activo 129 / 137 65% 1 10.08.2026 Aprobar